sensor_id;sensor_type;location;lat;lon;timestamp;pressure;altitude;pressure_sealevel;temperature;humidity
12358;BME280;6243;51.244;6.774;2023-07-08T00:00:11;154617.19;;;28.24;47.69
12358;BME280;6243;51.244;6.774;2023-07-08T00:02:37;154552.81;;;27.99;48.83
12358;BME280;6243;51.244;6.774;2023-07-08T00:05:03;154658.41;;;28.40;47.99
12358;BME280;6243;51.244;6.774;2023-07-08T00:07:29;154671.28;;;28.45;47.64
12358;BME280;6243;51.244;6.774;2023-07-08T00:09:54;154697.03;;;28.55;48.04
12358;BME280;6243;51.244;6.774;2023-07-08T00:12:20;154739.59;;;28.72;47.11
12358;BME280;6243;51.244;6.774;2023-07-08T00:14:45;154697.03;;;28.55;48.58
12358;BME280;6243;51.244;6.774;2023-07-08T00:17:12;154557.94;;;28.01;50.07
12358;BME280;6243;51.244;6.774;2023-07-08T00:19:38;154560.53;;;28.02;49.46
12358;BME280;6243;51.244;6.774;2023-07-08T00:22:09;154632.63;;;28.30;48.96
12358;BME280;6243;51.244;6.774;2023-07-08T00:24:36;154630.09;;;28.29;48.63
12358;BME280;6243;51.244;6.774;2023-07-08T00:27:01;154545.00;;;27.96;50.06
12358;BME280;6243;51.244;6.774;2023-07-08T00:29:27;154547.59;;;27.97;49.27
12358;BME280;6243;51.244;6.774;2023-07-08T00:31:53;154471.63;;;27.67;48.17
12358;BME280;6243;51.244;6.774;2023-07-08T00:34:19;154555.34;;;28.00;49.05
12358;BME280;6243;51.244;6.774;2023-07-08T00:36:45;154543.69;;;27.95;49.46
12358;BME280;6243;51.244;6.774;2023-07-08T00:39:13;154555.34;;;28.00;48.19
12358;BME280;6243;51.244;6.774;2023-07-08T00:41:40;154560.53;;;28.02;49.29
12358;BME280;6243;51.244;6.774;2023-07-08T00:44:08;154475.47;;;27.69;50.41
12358;BME280;6243;51.244;6.774;2023-07-08T00:46:42;154520.53;;;27.86;50.03
12358;BME280;6243;51.244;6.774;2023-07-08T00:49:23;154599.16;;;28.17;48.88
12358;BME280;6243;51.244;6.774;2023-07-08T00:51:50;154584.97;;;28.11;49.43
12358;BME280;6243;51.244;6.774;2023-07-08T00:54:17;154551.50;;;27.98;50.77
12358;BME280;6243;51.244;6.774;2023-07-08T00:56:46;154515.38;;;27.84;52.04
12358;BME280;6243;51.244;6.774;2023-07-08T00:59:22;154516.69;;;27.85;51.14
12358;BME280;6243;51.244;6.774;2023-07-08T01:01:49;154501.25;;;27.79;51.38
12358;BME280;6243;51.244;6.774;2023-07-08T01:04:20;154573.38;;;28.07;50.79
12358;BME280;6243;51.244;6.774;2023-07-08T01:06:53;154546.31;;;27.96;51.14
12358;BME280;6243;51.244;6.774;2023-07-08T01:09:20;154498.66;;;27.78;51.81
12358;BME280;6243;51.244;6.774;2023-07-08T01:11:46;154501.25;;;27.79;53.19
12358;BME280;6243;51.244;6.774;2023-07-08T01:14:15;154550.16;;;27.98;51.88
12358;BME280;6243;51.244;6.774;2023-07-08T01:16:43;154575.97;;;28.08;51.56
12358;BME280;6243;51.244;6.774;2023-07-08T01:19:14;154588.88;;;28.13;52.28
12358;BME280;6243;51.244;6.774;2023-07-08T01:21:46;154574.69;;;28.07;51.99
12358;BME280;6243;51.244;6.774;2023-07-08T01:24:11;154606.91;;;28.20;52.16
12358;BME280;6243;51.244;6.774;2023-07-08T01:26:40;154595.31;;;28.16;51.86
12358;BME280;6243;51.244;6.774;2023-07-08T01:29:07;154532.13;;;27.91;53.73
12358;BME280;6243;51.244;6.774;2023-07-08T01:31:33;154561.78;;;28.02;52.95
12358;BME280;6243;51.244;6.774;2023-07-08T01:33:59;154591.41;;;28.14;51.82
12358;BME280;6243;51.244;6.774;2023-07-08T01:36:25;154452.31;;;27.60;54.15
12358;BME280;6243;51.244;6.774;2023-07-08T01:38:52;154559.25;;;28.01;53.83
12358;BME280;6243;51.244;6.774;2023-07-08T01:41:18;154608.16;;;28.21;53.44
12358;BME280;6243;51.244;6.774;2023-07-08T01:43:43;154533.41;;;27.91;54.22
12358;BME280;6243;51.244;6.774;2023-07-08T01:46:14;154533.41;;;27.91;54.44
12358;BME280;6243;51.244;6.774;2023-07-08T01:48:42;154485.78;;;27.73;54.74
12358;BME280;6243;51.244;6.774;2023-07-08T01:51:11;154499.94;;;27.78;53.74
12358;BME280;6243;51.244;6.774;2023-07-08T01:53:38;154466.50;;;27.65;54.33
12358;BME280;6243;51.244;6.774;2023-07-08T01:56:06;154447.16;;;27.58;55.21
12358;BME280;6243;51.244;6.774;2023-07-08T01:58:32;154496.09;;;27.77;54.61
12358;BME280;6243;51.244;6.774;2023-07-08T02:00:58;154586.28;;;28.12;53.72
12358;BME280;6243;51.244;6.774;2023-07-08T02:03:25;154545.00;;;27.96;54.76
12358;BME280;6243;51.244;6.774;2023-07-08T02:05:50;154539.84;;;27.94;54.67
12358;BME280;6243;51.244;6.774;2023-07-08T02:08:16;154530.88;;;27.90;54.30
12358;BME280;6243;51.244;6.774;2023-07-08T02:10:42;154564.38;;;28.03;53.72
12358;BME280;6243;51.244;6.774;2023-07-08T02:13:09;154461.34;;;27.63;56.62
12358;BME280;6243;51.244;6.774;2023-07-08T02:15:35;154461.34;;;27.63;57.90
12358;BME280;6243;51.244;6.774;2023-07-08T02:18:00;154475.47;;;27.69;58.18
12358;BME280;6243;51.244;6.774;2023-07-08T02:20:26;154508.94;;;27.82;57.92
12358;BME280;6243;51.244;6.774;2023-07-08T02:22:51;154511.53;;;27.83;56.91
12358;BME280;6243;51.244;6.774;2023-07-08T02:25:17;154551.50;;;27.98;57.93
12358;BME280;6243;51.244;6.774;2023-07-08T02:27:43;154532.13;;;27.91;56.43
12358;BME280;6243;51.244;6.774;2023-07-08T02:30:10;154597.84;;;28.17;55.21
12358;BME280;6243;51.244;6.774;2023-07-08T02:32:36;154597.84;;;28.17;56.22
12358;BME280;6243;51.244;6.774;2023-07-08T02:35:01;154639.06;;;28.33;55.49
12358;BME280;6243;51.244;6.774;2023-07-08T02:37:27;154614.59;;;28.23;55.34
12358;BME280;6243;51.244;6.774;2023-07-08T02:39:52;154552.81;;;27.99;56.58
12358;BME280;6243;51.244;6.774;2023-07-08T02:42:18;154454.91;;;27.61;58.27
12358;BME280;6243;51.244;6.774;2023-07-08T02:44:43;154413.72;;;27.45;58.07
12358;BME280;6243;51.244;6.774;2023-07-08T02:47:10;154460.06;;;27.63;57.48
12358;BME280;6243;51.244;6.774;2023-07-08T02:49:36;154501.25;;;27.79;57.12
12358;BME280;6243;51.244;6.774;2023-07-08T02:52:01;154501.25;;;27.79;57.79
12358;BME280;6243;51.244;6.774;2023-07-08T02:54:27;154514.09;;;27.84;56.97
12358;BME280;6243;51.244;6.774;2023-07-08T02:56:52;154403.38;;;27.40;58.55
12358;BME280;6243;51.244;6.774;2023-07-08T02:59:18;154448.47;;;27.58;57.52
12358;BME280;6243;51.244;6.774;2023-07-08T03:01:43;154400.84;;;27.39;57.60
12358;BME280;6243;51.244;6.774;2023-07-08T03:04:11;154472.94;;;27.68;56.90
12358;BME280;6243;51.244;6.774;2023-07-08T03:06:36;154434.28;;;27.53;56.44
12358;BME280;6243;51.244;6.774;2023-07-08T03:09:03;154427.84;;;27.50;56.14
12358;BME280;6243;51.244;6.774;2023-07-08T03:11:28;154435.56;;;27.53;56.03
12358;BME280;6243;51.244;6.774;2023-07-08T03:13:54;154485.78;;;27.73;55.38
12358;BME280;6243;51.244;6.774;2023-07-08T03:16:19;154479.31;;;27.70;55.27
12358;BME280;6243;51.244;6.774;2023-07-08T03:18:45;154448.47;;;27.58;55.18
12358;BME280;6243;51.244;6.774;2023-07-08T03:21:13;154405.97;;;27.41;55.66
12358;BME280;6243;51.244;6.774;2023-07-08T03:23:38;154432.97;;;27.52;55.35
12358;BME280;6243;51.244;6.774;2023-07-08T03:26:04;154369.88;;;27.27;56.12
12358;BME280;6243;51.244;6.774;2023-07-08T03:28:29;154395.69;;;27.37;56.50
12358;BME280;6243;51.244;6.774;2023-07-08T03:30:55;154413.72;;;27.45;56.23
12358;BME280;6243;51.244;6.774;2023-07-08T03:33:20;154421.41;;;27.48;56.88
12358;BME280;6243;51.244;6.774;2023-07-08T03:35:46;154279.81;;;26.92;58.83
12358;BME280;6243;51.244;6.774;2023-07-08T03:38:13;154242.47;;;26.78;59.74
12358;BME280;6243;51.244;6.774;2023-07-08T03:40:39;154279.81;;;26.92;58.78
12358;BME280;6243;51.244;6.774;2023-07-08T03:43:04;154228.25;;;26.72;59.72
12358;BME280;6243;51.244;6.774;2023-07-08T03:45:29;154236.03;;;26.75;60.07
12358;BME280;6243;51.244;6.774;2023-07-08T03:47:55;154335.13;;;27.14;58.46
12358;BME280;6243;51.244;6.774;2023-07-08T03:50:22;154357.00;;;27.22;58.16
12358;BME280;6243;51.244;6.774;2023-07-08T03:52:49;154321.00;;;27.08;57.99
12358;BME280;6243;51.244;6.774;2023-07-08T03:55:17;154306.81;;;27.03;58.10
12358;BME280;6243;51.244;6.774;2023-07-08T03:57:43;154284.97;;;26.94;58.35
12358;BME280;6243;51.244;6.774;2023-07-08T04:00:10;154189.69;;;26.57;59.31
12358;BME280;6243;51.244;6.774;2023-07-08T04:02:36;154261.78;;;26.85;58.11
12358;BME280;6243;51.244;6.774;2023-07-08T04:05:01;154203.84;;;26.62;60.02
12358;BME280;6243;51.244;6.774;2023-07-08T04:07:27;154237.34;;;26.76;59.39
12358;BME280;6243;51.244;6.774;2023-07-08T04:09:53;154153.66;;;26.43;61.53
12358;BME280;6243;51.244;6.774;2023-07-08T04:12:20;154265.63;;;26.87;59.75
12358;BME280;6243;51.244;6.774;2023-07-08T04:14:45;154290.09;;;26.96;60.36
12358;BME280;6243;51.244;6.774;2023-07-08T04:17:11;154304.22;;;27.02;59.63
12358;BME280;6243;51.244;6.774;2023-07-08T04:19:37;154175.50;;;26.51;62.91
12358;BME280;6243;51.244;6.774;2023-07-08T04:22:03;154184.53;;;26.55;62.62
12358;BME280;6243;51.244;6.774;2023-07-08T04:24:29;154228.25;;;26.72;62.10
12358;BME280;6243;51.244;6.774;2023-07-08T04:26:54;154215.44;;;26.67;62.79
12358;BME280;6243;51.244;6.774;2023-07-08T04:29:22;154284.97;;;26.94;61.26
12358;BME280;6243;51.244;6.774;2023-07-08T04:31:48;154274.66;;;26.90;62.35
12358;BME280;6243;51.244;6.774;2023-07-08T04:34:15;154245.06;;;26.79;62.30
12358;BME280;6243;51.244;6.774;2023-07-08T04:36:41;154248.91;;;26.80;61.40
12358;BME280;6243;51.244;6.774;2023-07-08T04:39:08;154286.25;;;26.95;61.08
12358;BME280;6243;51.244;6.774;2023-07-08T04:41:35;154326.13;;;27.10;60.90
12358;BME280;6243;51.244;6.774;2023-07-08T04:44:01;154333.81;;;27.13;60.28
12358;BME280;6243;51.244;6.774;2023-07-08T04:46:32;154345.41;;;27.18;61.22
12358;BME280;6243;51.244;6.774;2023-07-08T04:48:59;154357.00;;;27.22;61.73
12358;BME280;6243;51.244;6.774;2023-07-08T04:51:25;154323.53;;;27.09;62.35
12358;BME280;6243;51.244;6.774;2023-07-08T04:53:50;154372.47;;;27.28;62.74
12358;BME280;6243;51.244;6.774;2023-07-08T04:56:16;154398.22;;;27.38;61.31
12358;BME280;6243;51.244;6.774;2023-07-08T04:58:41;154420.16;;;27.47;61.13
12358;BME280;6243;51.244;6.774;2023-07-08T05:01:07;154411.13;;;27.43;61.77
12358;BME280;6243;51.244;6.774;2023-07-08T05:03:33;154426.53;;;27.50;61.62
12358;BME280;6243;51.244;6.774;2023-07-08T05:05:59;154474.19;;;27.68;60.98
12358;BME280;6243;51.244;6.774;2023-07-08T05:08:24;154506.41;;;27.81;60.45
12358;BME280;6243;51.244;6.774;2023-07-08T05:10:50;154556.66;;;28.00;60.98
12358;BME280;6243;51.244;6.774;2023-07-08T05:13:16;154583.72;;;28.11;61.54
12358;BME280;6243;51.244;6.774;2023-07-08T05:15:41;154615.88;;;28.24;59.92
12358;BME280;6243;51.244;6.774;2023-07-08T05:18:07;154639.06;;;28.33;60.47
12358;BME280;6243;51.244;6.774;2023-07-08T05:20:33;154667.41;;;28.44;58.88
12358;BME280;6243;51.244;6.774;2023-07-08T05:22:59;154707.38;;;28.59;56.77
12358;BME280;6243;51.244;6.774;2023-07-08T05:25:24;154730.56;;;28.68;54.61
12358;BME280;6243;51.244;6.774;2023-07-08T05:27:50;154657.09;;;28.40;50.74
12358;BME280;6243;51.244;6.774;2023-07-08T05:30:17;154676.44;;;28.47;49.45
12358;BME280;6243;51.244;6.774;2023-07-08T05:32:43;154689.28;;;28.52;47.75
12358;BME280;6243;51.244;6.774;2023-07-08T05:35:09;154815.63;;;29.02;47.97
12358;BME280;6243;51.244;6.774;2023-07-08T05:37:36;154699.63;;;28.56;45.99
12358;BME280;6243;51.244;6.774;2023-07-08T05:40:01;154793.75;;;28.93;45.29
12358;BME280;6243;51.244;6.774;2023-07-08T05:42:27;154869.81;;;29.23;46.19
12358;BME280;6243;51.244;6.774;2023-07-08T05:44:52;154917.47;;;29.41;45.67
12358;BME280;6243;51.244;6.774;2023-07-08T05:47:18;154858.22;;;29.18;44.19
12358;BME280;6243;51.244;6.774;2023-07-08T05:49:44;154960.00;;;29.58;44.14
12358;BME280;6243;51.244;6.774;2023-07-08T05:52:09;154983.22;;;29.67;43.28
12358;BME280;6243;51.244;6.774;2023-07-08T05:54:36;155034.81;;;29.87;43.00
12358;BME280;6243;51.244;6.774;2023-07-08T05:57:02;155056.78;;;29.96;43.17
12358;BME280;6243;51.244;6.774;2023-07-08T05:59:27;154997.41;;;29.73;42.39
12358;BME280;6243;51.244;6.774;2023-07-08T06:01:53;155037.41;;;29.88;42.55
12358;BME280;6243;51.244;6.774;2023-07-08T06:04:18;154996.09;;;29.72;41.70
12358;BME280;6243;51.244;6.774;2023-07-08T06:06:43;154960.00;;;29.58;41.42
12358;BME280;6243;51.244;6.774;2023-07-08T06:09:09;155012.91;;;29.79;41.08
12358;BME280;6243;51.244;6.774;2023-07-08T06:11:36;155002.56;;;29.75;41.34
12358;BME280;6243;51.244;6.774;2023-07-08T06:14:01;154988.38;;;29.69;41.13
12358;BME280;6243;51.244;6.774;2023-07-08T06:16:28;154846.56;;;29.14;41.47
12358;BME280;6243;51.244;6.774;2023-07-08T06:18:53;155029.66;;;29.85;40.30
12358;BME280;6243;51.244;6.774;2023-07-08T06:21:19;154947.09;;;29.53;40.81
12358;BME280;6243;51.244;6.774;2023-07-08T06:23:44;154996.09;;;29.72;40.17
12358;BME280;6243;51.244;6.774;2023-07-08T06:26:10;155103.19;;;30.14;40.11
12358;BME280;6243;51.244;6.774;2023-07-08T06:28:37;155172.88;;;30.41;40.58
12358;BME280;6243;51.244;6.774;2023-07-08T06:31:02;155136.69;;;30.27;40.87
12358;BME280;6243;51.244;6.774;2023-07-08T06:33:28;155180.59;;;30.44;39.52
12358;BME280;6243;51.244;6.774;2023-07-08T06:35:53;155272.19;;;30.80;39.67
12358;BME280;6243;51.244;6.774;2023-07-08T06:38:19;155287.66;;;30.86;39.86
12358;BME280;6243;51.244;6.774;2023-07-08T06:40:44;155099.28;;;30.12;39.93
12358;BME280;6243;51.244;6.774;2023-07-08T06:43:10;155197.34;;;30.51;39.32
12358;BME280;6243;51.244;6.774;2023-07-08T06:45:37;155285.06;;;30.85;39.19
12358;BME280;6243;51.244;6.774;2023-07-08T06:48:02;155208.94;;;30.55;38.77
12358;BME280;6243;51.244;6.774;2023-07-08T06:50:28;155251.53;;;30.72;37.87
12358;BME280;6243;51.244;6.774;2023-07-08T06:52:53;155334.16;;;31.04;38.33
12358;BME280;6243;51.244;6.774;2023-07-08T06:55:19;155326.38;;;31.01;37.95
12358;BME280;6243;51.244;6.774;2023-07-08T06:57:45;155308.38;;;30.94;38.01
12358;BME280;6243;51.244;6.774;2023-07-08T07:00:11;155329.00;;;31.02;37.65
12358;BME280;6243;51.244;6.774;2023-07-08T07:02:38;155414.13;;;31.35;37.93
12358;BME280;6243;51.244;6.774;2023-07-08T07:05:04;155463.25;;;31.54;37.52
12358;BME280;6243;51.244;6.774;2023-07-08T07:07:30;155359.97;;;31.14;37.72
12358;BME280;6243;51.244;6.774;2023-07-08T07:09:56;155543.25;;;31.86;37.53
12358;BME280;6243;51.244;6.774;2023-07-08T07:12:23;155513.56;;;31.74;37.86
12358;BME280;6243;51.244;6.774;2023-07-08T07:14:48;155467.09;;;31.56;37.06
12358;BME280;6243;51.244;6.774;2023-07-08T07:17:14;155385.75;;;31.24;37.78
12358;BME280;6243;51.244;6.774;2023-07-08T07:19:41;155485.19;;;31.63;37.32
12358;BME280;6243;51.244;6.774;2023-07-08T07:22:06;155514.88;;;31.75;37.42
12358;BME280;6243;51.244;6.774;2023-07-08T07:24:32;155465.84;;;31.56;36.95
12358;BME280;6243;51.244;6.774;2023-07-08T07:26:57;155405.13;;;31.32;37.27
12358;BME280;6243;51.244;6.774;2023-07-08T07:29:23;155580.75;;;32.00;37.12
12358;BME280;6243;51.244;6.774;2023-07-08T07:31:49;155566.50;;;31.95;37.68
12358;BME280;6243;51.244;6.774;2023-07-08T07:34:14;155618.22;;;32.15;36.98
12358;BME280;6243;51.244;6.774;2023-07-08T07:36:41;155644.03;;;32.25;36.99
12358;BME280;6243;51.244;6.774;2023-07-08T07:39:07;155716.41;;;32.53;37.32
12358;BME280;6243;51.244;6.774;2023-07-08T07:41:32;155713.78;;;32.52;36.08
12358;BME280;6243;51.244;6.774;2023-07-08T07:43:58;155758.97;;;32.70;36.28
12358;BME280;6243;51.244;6.774;2023-07-08T07:46:23;155695.66;;;32.45;36.70
12358;BME280;6243;51.244;6.774;2023-07-08T07:48:49;155765.44;;;32.72;35.91
12358;BME280;6243;51.244;6.774;2023-07-08T07:51:15;155791.31;;;32.82;35.73
12358;BME280;6243;51.244;6.774;2023-07-08T07:53:42;155799.06;;;32.85;35.64
12358;BME280;6243;51.244;6.774;2023-07-08T07:56:08;155757.72;;;32.69;36.01
12358;BME280;6243;51.244;6.774;2023-07-08T07:58:34;155831.34;;;32.98;35.13
12358;BME280;6243;51.244;6.774;2023-07-08T08:00:59;155730.56;;;32.59;35.55
12358;BME280;6243;51.244;6.774;2023-07-08T08:03:25;155681.50;;;32.40;35.50
12358;BME280;6243;51.244;6.774;2023-07-08T08:05:50;155740.94;;;32.63;35.02
12358;BME280;6243;51.244;6.774;2023-07-08T08:08:16;155799.06;;;32.85;35.00
12358;BME280;6243;51.244;6.774;2023-07-08T08:10:43;155824.88;;;32.96;34.96
12358;BME280;6243;51.244;6.774;2023-07-08T08:13:09;155972.25;;;33.53;34.62
12358;BME280;6243;51.244;6.774;2023-07-08T08:15:35;155863.72;;;33.11;34.87
12358;BME280;6243;51.244;6.774;2023-07-08T08:18:01;155876.59;;;33.16;34.61
12358;BME280;6243;51.244;6.774;2023-07-08T08:20:28;155868.88;;;33.13;34.59
12358;BME280;6243;51.244;6.774;2023-07-08T08:22:54;155855.94;;;33.08;34.33
12358;BME280;6243;51.244;6.774;2023-07-08T08:25:21;155886.97;;;33.20;34.52
12358;BME280;6243;51.244;6.774;2023-07-08T08:27:48;155746.09;;;32.65;34.96
12358;BME280;6243;51.244;6.774;2023-07-08T08:30:14;155872.72;;;33.14;34.65
12358;BME280;6243;51.244;6.774;2023-07-08T08:32:40;155832.63;;;32.99;34.96
12358;BME280;6243;51.244;6.774;2023-07-08T08:35:06;155819.72;;;32.93;35.26
12358;BME280;6243;51.244;6.774;2023-07-08T08:37:31;155787.44;;;32.81;35.34
12358;BME280;6243;51.244;6.774;2023-07-08T08:39:57;155917.94;;;33.32;35.20
12358;BME280;6243;51.244;6.774;2023-07-08T08:42:26;155936.03;;;33.39;34.62
12358;BME280;6243;51.244;6.774;2023-07-08T08:44:54;155903.75;;;33.26;34.76
12358;BME280;6243;51.244;6.774;2023-07-08T08:47:30;155955.41;;;33.46;34.64
12358;BME280;6243;51.244;6.774;2023-07-08T08:50:02;156027.84;;;33.75;34.22
12358;BME280;6243;51.244;6.774;2023-07-08T08:52:28;156000.69;;;33.64;34.29
12358;BME280;6243;51.244;6.774;2023-07-08T08:54:54;155999.38;;;33.64;34.38
12358;BME280;6243;51.244;6.774;2023-07-08T08:57:30;156002.00;;;33.65;34.35
12358;BME280;6243;51.244;6.774;2023-07-08T08:59:59;156088.56;;;33.98;33.74
12358;BME280;6243;51.244;6.774;2023-07-08T09:02:32;156135.16;;;34.16;33.70
12358;BME280;6243;51.244;6.774;2023-07-08T09:05:03;156289.06;;;34.76;33.45
12358;BME280;6243;51.244;6.774;2023-07-08T09:07:32;156399.03;;;35.19;33.14
12358;BME280;6243;51.244;6.774;2023-07-08T09:10:03;156335.63;;;34.94;33.28
12358;BME280;6243;51.244;6.774;2023-07-08T09:12:31;156184.28;;;34.36;33.42
12358;BME280;6243;51.244;6.774;2023-07-08T09:15:01;156259.31;;;34.65;33.44
12358;BME280;6243;51.244;6.774;2023-07-08T09:17:35;156411.97;;;35.24;33.61
12358;BME280;6243;51.244;6.774;2023-07-08T09:20:07;156448.22;;;35.38;33.59
12358;BME280;6243;51.244;6.774;2023-07-08T09:22:41;156494.84;;;35.56;33.45
12358;BME280;6243;51.244;6.774;2023-07-08T09:25:20;156597.03;;;35.96;32.73
12358;BME280;6243;51.244;6.774;2023-07-08T09:27:47;156233.44;;;34.55;33.59
12358;BME280;6243;51.244;6.774;2023-07-08T09:30:14;156453.38;;;35.40;32.06
12358;BME280;6243;51.244;6.774;2023-07-08T09:32:40;156386.09;;;35.14;32.64
12358;BME280;6243;51.244;6.774;2023-07-08T09:35:08;156352.47;;;35.01;33.12
12358;BME280;6243;51.244;6.774;2023-07-08T09:37:35;156321.38;;;34.89;33.02
12358;BME280;6243;51.244;6.774;2023-07-08T09:40:10;156322.69;;;34.89;32.85
12358;BME280;6243;51.244;6.774;2023-07-08T09:42:42;156329.16;;;34.92;33.12
12358;BME280;6243;51.244;6.774;2023-07-08T09:45:14;156192.06;;;34.39;33.22
12358;BME280;6243;51.244;6.774;2023-07-08T09:47:40;156331.75;;;34.93;33.23
12358;BME280;6243;51.244;6.774;2023-07-08T09:50:18;156392.56;;;35.17;32.80
12358;BME280;6243;51.244;6.774;2023-07-08T09:52:43;156440.44;;;35.35;33.48
12358;BME280;6243;51.244;6.774;2023-07-08T09:55:11;156365.44;;;35.06;33.29
12358;BME280;6243;51.244;6.774;2023-07-08T09:57:37;156373.19;;;35.09;33.52
12358;BME280;6243;51.244;6.774;2023-07-08T10:00:07;156430.09;;;35.31;33.07
12358;BME280;6243;51.244;6.774;2023-07-08T10:02:39;156573.72;;;35.87;33.19
12358;BME280;6243;51.244;6.774;2023-07-08T10:05:13;156537.53;;;35.73;32.89
12358;BME280;6243;51.244;6.774;2023-07-08T10:07:39;156523.28;;;35.68;32.77
12358;BME280;6243;51.244;6.774;2023-07-08T10:10:08;156479.31;;;35.50;33.54
12358;BME280;6243;51.244;6.774;2023-07-08T10:12:38;156580.22;;;35.90;32.75
12358;BME280;6243;51.244;6.774;2023-07-08T10:15:15;156644.97;;;36.15;32.31
12358;BME280;6243;51.244;6.774;2023-07-08T10:17:46;156707.13;;;36.39;32.14
12358;BME280;6243;51.244;6.774;2023-07-08T10:20:12;156756.31;;;36.58;32.57
12358;BME280;6243;51.244;6.774;2023-07-08T10:22:45;156821.06;;;36.83;32.00
12358;BME280;6243;51.244;6.774;2023-07-08T10:25:20;156891.03;;;37.11;32.32
12358;BME280;6243;51.244;6.774;2023-07-08T10:27:54;156678.66;;;36.28;31.57
12358;BME280;6243;51.244;6.774;2023-07-08T10:30:23;156566.00;;;35.84;32.64
12358;BME280;6243;51.244;6.774;2023-07-08T10:33:05;156672.19;;;36.25;31.80
12358;BME280;6243;51.244;6.774;2023-07-08T10:35:36;156740.81;;;36.52;31.56
12358;BME280;6243;51.244;6.774;2023-07-08T10:38:18;156905.28;;;37.16;31.75
12358;BME280;6243;51.244;6.774;2023-07-08T10:40:54;156797.75;;;36.74;31.89
12358;BME280;6243;51.244;6.774;2023-07-08T10:43:35;156806.84;;;36.78;31.42
12358;BME280;6243;51.244;6.774;2023-07-08T10:46:15;156743.41;;;36.53;31.54
12358;BME280;6243;51.244;6.774;2023-07-08T10:49:06;157008.94;;;37.56;30.74
12358;BME280;6243;51.244;6.774;2023-07-08T10:51:41;156901.41;;;37.15;31.85
12358;BME280;6243;51.244;6.774;2023-07-08T10:54:36;157089.31;;;37.88;30.84
12358;BME280;6243;51.244;6.774;2023-07-08T10:57:17;157185.16;;;38.25;30.78
12358;BME280;6243;51.244;6.774;2023-07-08T10:59:54;157110.03;;;37.96;31.08
12358;BME280;6243;51.244;6.774;2023-07-08T11:02:58;157112.63;;;37.97;30.62
12358;BME280;6243;51.244;6.774;2023-07-08T11:05:34;157106.16;;;37.94;30.74
12358;BME280;6243;51.244;6.774;2023-07-08T11:08:07;157339.50;;;38.85;30.53
12358;BME280;6243;51.244;6.774;2023-07-08T11:10:37;157317.47;;;38.76;29.70
12358;BME280;6243;51.244;6.774;2023-07-08T11:13:06;157419.88;;;39.16;29.71
12358;BME280;6243;51.244;6.774;2023-07-08T11:15:41;157417.31;;;39.15;29.44
12358;BME280;6243;51.244;6.774;2023-07-08T11:18:15;157323.94;;;38.79;29.80
12358;BME280;6243;51.244;6.774;2023-07-08T11:20:50;157307.13;;;38.72;30.31
12358;BME280;6243;51.244;6.774;2023-07-08T11:23:25;157215.00;;;38.37;29.38
12358;BME280;6243;51.244;6.774;2023-07-08T11:25:57;157380.97;;;39.01;29.11
12358;BME280;6243;51.244;6.774;2023-07-08T11:28:24;157471.72;;;39.36;29.11
12358;BME280;6243;51.244;6.774;2023-07-08T11:30:51;157566.44;;;39.73;29.40
12358;BME280;6243;51.244;6.774;2023-07-08T11:33:21;157478.22;;;39.39;28.98
12358;BME280;6243;51.244;6.774;2023-07-08T11:35:52;157482.16;;;39.40;28.74
12358;BME280;6243;51.244;6.774;2023-07-08T11:38:20;157410.78;;;39.13;29.70
12358;BME280;6243;51.244;6.774;2023-07-08T11:40:56;157493.81;;;39.45;28.64
12358;BME280;6243;51.244;6.774;2023-07-08T11:43:25;157604.06;;;39.88;28.76
12358;BME280;6243;51.244;6.774;2023-07-08T11:45:55;157500.31;;;39.47;28.52
12358;BME280;6243;51.244;6.774;2023-07-08T11:48:23;157519.72;;;39.55;28.61
12358;BME280;6243;51.244;6.774;2023-07-08T11:50:52;157454.88;;;39.30;28.37
12358;BME280;6243;51.244;6.774;2023-07-08T11:53:34;157541.84;;;39.63;28.57
12358;BME280;6243;51.244;6.774;2023-07-08T11:56:02;157549.59;;;39.66;28.59
12358;BME280;6243;51.244;6.774;2023-07-08T11:58:30;157656.00;;;40.08;28.88
12358;BME280;6243;51.244;6.774;2023-07-08T12:00:58;157733.81;;;40.38;28.92
12358;BME280;6243;51.244;6.774;2023-07-08T12:03:32;157739.00;;;40.40;28.13
12358;BME280;6243;51.244;6.774;2023-07-08T12:06:00;157360.19;;;38.93;28.38
12358;BME280;6243;51.244;6.774;2023-07-08T12:08:33;157487.31;;;39.42;28.43
12358;BME280;6243;51.244;6.774;2023-07-08T12:11:01;157618.34;;;39.93;28.31
12358;BME280;6243;51.244;6.774;2023-07-08T12:13:26;157579.41;;;39.78;28.32
12358;BME280;6243;51.244;6.774;2023-07-08T12:15:52;157788.38;;;40.59;27.48
12358;BME280;6243;51.244;6.774;2023-07-08T12:18:21;157772.78;;;40.53;26.93
12358;BME280;6243;51.244;6.774;2023-07-08T12:20:49;157552.22;;;39.67;27.39
12358;BME280;6243;51.244;6.774;2023-07-08T12:23:19;157528.88;;;39.58;28.78
12358;BME280;6243;51.244;6.774;2023-07-08T12:25:45;157596.28;;;39.85;28.69
12358;BME280;6243;51.244;6.774;2023-07-08T12:28:11;157785.75;;;40.58;28.00
12358;BME280;6243;51.244;6.774;2023-07-08T12:30:37;157771.50;;;40.53;27.87
12358;BME280;6243;51.244;6.774;2023-07-08T12:33:09;157801.31;;;40.64;28.06
12358;BME280;6243;51.244;6.774;2023-07-08T12:35:36;157933.72;;;41.16;28.02
12358;BME280;6243;51.244;6.774;2023-07-08T12:38:03;157697.50;;;40.24;27.59
12358;BME280;6243;51.244;6.774;2023-07-08T12:40:31;157587.22;;;39.81;26.90
12358;BME280;6243;51.244;6.774;2023-07-08T12:42:57;157627.41;;;39.97;27.39
12358;BME280;6243;51.244;6.774;2023-07-08T12:45:24;157649.50;;;40.05;27.73
12358;BME280;6243;51.244;6.774;2023-07-08T12:47:51;157653.41;;;40.07;26.29
12358;BME280;6243;51.244;6.774;2023-07-08T12:50:17;157632.59;;;39.99;26.95
12358;BME280;6243;51.244;6.774;2023-07-08T12:52:43;157610.56;;;39.90;27.08
12358;BME280;6243;51.244;6.774;2023-07-08T12:55:09;157681.94;;;40.18;26.98
12358;BME280;6243;51.244;6.774;2023-07-08T12:57:36;157697.50;;;40.24;26.97
12358;BME280;6243;51.244;6.774;2023-07-08T13:00:04;157567.75;;;39.74;27.30
12358;BME280;6243;51.244;6.774;2023-07-08T13:02:31;157518.47;;;39.54;26.99